Aérodrome :
LOGIN :

S'inscrire | Disclaimer

   EN    FR    IT 

 










Légende :    VFR   VFR Marginal   IFR   IFR Intensif   IFR Très Intensif
Visi : 
Plafond : 
>= 8 km
>= 3000ft
5 à 8 km
1000 à 3000 ft
1500m à 5 km
500 à 1000 ft
800 à 1500m
200 à 500 ft
< 800m
< 200 ft
Symboles :   Orages  Brouillard  Fortes neiges  Fortes précipitations  Vent > 20 kt
SIGMETs :   Divers  Orages  Givrage  Turbulence  Onde Orograph.  Cendres Volcan.







- Altitude de l'aérodrome : 299 ft
- Code IATA : EDM
- Voir les cartes d'approche


LFRI - La Roche Sur Yon - Les Ajoncs

DERNIER METAR :
  • 142100Z AUTO 28004KT CAVOK 18/16 Q1022 TEMPO 0500 FG VV///

METARs EXPIRÉS :
  • 142030Z AUTO 30006KT CAVOK 18/16 Q1022 TEMPO 0500 FG VV///
  • 142000Z AUTO 30004KT CAVOK 18/15 Q1022 TEMPO 3000 BR BKN005
  • 141930Z AUTO 30006KT CAVOK 19/15 Q1022 TEMPO 3000 BR BKN005
  • 141900Z AUTO 30008KT CAVOK 20/15 Q1021 NOSIG
  • 141830Z AUTO 30008KT CAVOK 21/15 Q1021 NOSIG
  • 141800Z AUTO 30005KT 270V330 9999 FEW031 22/15 Q1021 NOSIG

TAF TAF LFRI
Valide du 14 à 18h jusqu'au 15 à 18h UTC


141700Z 1418/1518 36006KT 9999 SCT030
TEMPO 1421/1508 3000 BR BKN005
PROB40
TEMPO 1422/1506 0500 FG VV///
Pas de NOTAMs connus pour ce terrain.



MET'MAP, la Météo Aéronautique d'un coup d'oeil ! - Copyright ORBIFLY Décembre 2007 - Disclaimer

ORBIFLY MET'MAP TEAM :

Programmation & Développement : Alexandra Zaïnal
Conception & Développement : Baudouin d'Aumeries
Co-Programmation & Développement : Marc-Olivier Méhu
Soutien technique & logistique : Manuel Goepfert

Contact : metmap@orbifly.com




SOURCES & CREDITS :

   NOAA